Time;durP1;ratioP1;P1;durP2;ratioP2;P2;SDS_P1;SDS_P2;PMS_P1;PMS_P2;Temp;Humidity;BMP_temperature;BMP_pressure;BME280_temperature;BME280_humidity;BME280_pressure;Samples;Min_cycle;Max_cycle;Signal;HPM_P1;HPM_P2
2021/09/13 00:00:17;;;;;;;1.50;1.00;;;16.60;98.20;;;;;;4957849;28;20467;-78
2021/09/13 00:02:43;;;;;;;1.50;1.00;;;16.50;98.20;;;;;;4971669;28;20476;-80
2021/09/13 00:05:10;;;;;;;1.50;1.00;;;16.50;98.20;;;;;;4958315;28;20841;-80
2021/09/13 00:07:37;;;;;;;1.50;1.00;;;16.50;98.20;;;;;;4967753;28;20508;-80
2021/09/13 00:10:05;;;;;;;1.50;0.97;;;16.50;98.20;;;;;;4967579;28;20466;-80
2021/09/13 00:12:31;;;;;;;1.50;1.00;;;16.40;98.20;;;;;;4961329;28;20478;-80
2021/09/13 00:14:58;;;;;;;1.60;1.10;;;16.40;98.20;;;;;;4958332;28;20463;-80
2021/09/13 00:17:26;;;;;;;1.50;0.90;;;16.40;98.20;;;;;;4967470;28;20505;-80
2021/09/13 00:19:53;;;;;;;1.53;1.00;;;16.30;98.20;;;;;;4968625;28;20462;-81
2021/09/13 00:22:20;;;;;;;1.50;0.90;;;16.30;98.20;;;;;;4968435;28;20504;-80
2021/09/13 00:24:46;;;;;;;1.50;0.90;;;16.30;98.20;;;;;;4968927;28;20493;-80
2021/09/13 00:27:13;;;;;;;1.80;1.60;;;16.30;98.20;;;;;;4965910;28;20517;-81
2021/09/13 00:29:40;;;;;;;1.50;1.00;;;16.20;98.20;;;;;;4965100;28;20505;-80
2021/09/13 00:32:07;;;;;;;1.50;1.00;;;16.20;98.20;;;;;;4963269;28;20476;-80
2021/09/13 00:34:36;;;;;;;1.50;0.90;;;16.20;98.20;;;;;;4972506;28;20466;-80
2021/09/13 00:37:03;;;;;;;1.50;1.00;;;16.20;98.20;;;;;;4961528;28;20522;-80
2021/09/13 00:39:30;;;;;;;1.50;1.00;;;16.20;98.20;;;;;;4967912;28;20488;-81
2021/09/13 00:41:56;;;;;;;1.50;1.00;;;16.20;98.20;;;;;;4962918;28;20610;-81
2021/09/13 00:44:24;;;;;;;1.50;1.10;;;16.20;98.20;;;;;;4960822;28;20467;-80
2021/09/13 00:46:50;;;;;;;1.53;1.00;;;16.20;98.20;;;;;;4959530;28;20519;-80
2021/09/13 00:49:17;;;;;;;1.50;0.97;;;16.20;98.20;;;;;;4968706;28;20483;-80
2021/09/13 00:51:45;;;;;;;1.50;1.00;;;16.20;98.20;;;;;;4962793;28;20489;-81
2021/09/13 00:54:12;;;;;;;1.60;1.10;;;16.20;98.20;;;;;;4965079;28;20466;-81
2021/09/13 00:56:42;;;;;;;1.50;1.00;;;16.10;98.20;;;;;;4968387;28;20772;-80
2021/09/13 00:59:10;;;;;;;1.50;1.00;;;16.10;98.20;;;;;;4975836;28;20504;-80
2021/09/13 01:01:37;;;;;;;1.50;1.00;;;16.10;98.20;;;;;;4962465;28;20485;-80
2021/09/13 01:04:04;;;;;;;1.50;0.90;;;16.10;98.20;;;;;;4982598;28;20554;-80
2021/09/13 01:06:31;;;;;;;1.50;1.00;;;16.10;98.20;;;;;;4963994;28;20484;-79
2021/09/13 01:08:59;;;;;;;1.57;1.10;;;16.00;98.20;;;;;;4982751;28;20482;-80
2021/09/13 01:11:27;;;;;;;1.50;1.00;;;16.00;98.20;;;;;;4976008;28;20495;-80
2021/09/13 01:13:53;;;;;;;1.50;1.00;;;16.00;98.20;;;;;;5000850;28;20516;-80
2021/09/13 01:16:20;;;;;;;1.50;1.00;;;15.90;98.20;;;;;;4980995;28;20473;-80
2021/09/13 01:18:47;;;;;;;1.53;1.00;;;15.90;98.20;;;;;;4993436;28;20496;-80
2021/09/13 01:21:14;;;;;;;1.50;1.00;;;15.90;98.20;;;;;;4975756;28;21115;-80
2021/09/13 01:23:42;;;;;;;1.53;1.00;;;15.80;98.20;;;;;;5008301;28;20506;-80
2021/09/13 01:26:09;;;;;;;1.57;1.00;;;15.80;98.20;;;;;;4991215;28;20543;-80
2021/09/13 01:28:36;;;;;;;1.50;1.00;;;15.80;98.20;;;;;;5007009;28;20989;-80
2021/09/13 01:31:02;;;;;;;1.50;1.00;;;15.80;98.20;;;;;;4982332;28;20460;-80
2021/09/13 01:33:29;;;;;;;1.50;0.90;;;15.80;98.20;;;;;;5006273;28;20481;-80
2021/09/13 01:35:56;;;;;;;1.57;1.00;;;15.70;98.20;;;;;;4977179;28;20480;-80
2021/09/13 01:38:26;;;;;;;1.50;1.00;;;15.70;98.20;;;;;;4986479;28;20489;-80
2021/09/13 01:40:54;;;;;;;1.50;1.00;;;15.70;98.20;;;;;;4985918;28;20465;-79
2021/09/13 01:43:21;;;;;;;1.53;1.00;;;15.70;98.20;;;;;;4998891;28;20461;-80
2021/09/13 01:45:48;;;;;;;1.50;1.00;;;15.70;98.20;;;;;;4985230;28;21235;-80
2021/09/13 01:48:15;;;;;;;1.53;1.00;;;15.70;98.20;;;;;;4978278;28;20488;-80
2021/09/13 01:50:42;;;;;;;1.50;1.00;;;15.70;98.20;;;;;;4987857;28;20464;-80
2021/09/13 01:53:08;;;;;;;1.53;1.00;;;15.70;98.20;;;;;;5000824;28;20647;-80
2021/09/13 01:55:35;;;;;;;1.53;1.00;;;15.60;98.20;;;;;;4989656;28;20632;-80
2021/09/13 01:58:04;;;;;;;1.50;1.00;;;15.60;98.20;;;;;;4997318;28;21033;-80
2021/09/13 02:00:31;;;;;;;1.53;1.00;;;15.60;98.20;;;;;;4998001;28;20821;-79
2021/09/13 02:02:58;;;;;;;1.53;1.00;;;15.60;98.20;;;;;;4987378;28;20476;-79
2021/09/13 02:05:24;;;;;;;1.53;1.07;;;15.60;98.20;;;;;;4985789;28;20469;-79
2021/09/13 02:07:51;;;;;;;1.50;1.00;;;15.50;98.20;;;;;;4998306;28;20496;-80
2021/09/13 02:10:18;;;;;;;1.57;1.00;;;15.50;98.20;;;;;;4984537;28;20469;-79
2021/09/13 02:12:45;;;;;;;1.50;0.90;;;15.50;98.20;;;;;;4996410;28;21006;-80
2021/09/13 02:15:13;;;;;;;1.50;1.00;;;15.50;98.20;;;;;;4986653;28;20462;-79
2021/09/13 02:17:40;;;;;;;1.53;0.90;;;15.50;98.20;;;;;;4994048;28;20486;-80
2021/09/13 02:20:07;;;;;;;1.60;1.03;;;15.50;98.20;;;;;;4995574;28;20465;-79
2021/09/13 02:22:34;;;;;;;1.53;1.00;;;15.50;98.20;;;;;;4987843;28;20477;-79
2021/09/13 02:25:01;;;;;;;1.50;1.10;;;15.40;98.20;;;;;;4988923;28;20461;-80
2021/09/13 02:27:28;;;;;;;1.57;1.00;;;15.40;98.20;;;;;;4997611;28;20507;-79
2021/09/13 02:29:55;;;;;;;1.53;1.10;;;15.40;98.20;;;;;;4988234;28;20556;-79
2021/09/13 02:32:23;;;;;;;1.57;1.00;;;15.30;98.20;;;;;;4990444;28;20864;-79
2021/09/13 02:34:50;;;;;;;1.50;1.00;;;15.30;98.20;;;;;;4989526;28;20473;-79
2021/09/13 02:37:16;;;;;;;1.50;1.00;;;15.30;98.20;;;;;;4976482;28;20488;-79
2021/09/13 02:39:43;;;;;;;1.50;1.00;;;15.30;98.20;;;;;;4991062;28;20489;-79
2021/09/13 02:42:10;;;;;;;1.57;1.00;;;15.30;98.20;;;;;;4987874;28;20491;-79
2021/09/13 02:44:37;;;;;;;1.57;1.00;;;15.30;98.20;;;;;;4990186;28;20471;-79
2021/09/13 02:47:04;;;;;;;1.53;1.00;;;15.30;98.20;;;;;;4985489;28;20492;-79
2021/09/13 02:49:32;;;;;;;1.50;1.00;;;15.20;98.20;;;;;;4986674;28;20487;-79
2021/09/13 02:51:59;;;;;;;1.57;1.00;;;15.20;98.20;;;;;;4988514;28;20492;-79
2021/09/13 02:54:25;;;;;;;1.60;1.10;;;15.20;98.20;;;;;;5002655;28;20484;-79
2021/09/13 02:56:52;;;;;;;1.53;1.00;;;15.10;98.20;;;;;;4983701;28;20488;-79
2021/09/13 02:59:19;;;;;;;1.50;1.03;;;15.10;98.20;;;;;;4994855;28;20477;-78
2021/09/13 03:01:46;;;;;;;1.50;1.00;;;15.10;98.20;;;;;;4968458;28;20482;-79
2021/09/13 03:04:12;;;;;;;1.53;1.00;;;15.10;98.20;;;;;;4991192;28;20468;-79
2021/09/13 03:06:41;;;;;;;1.57;1.00;;;15.10;98.20;;;;;;4979162;28;20496;-79
2021/09/13 03:09:07;;;;;;;1.57;1.03;;;15.10;98.20;;;;;;4993561;28;20484;-79
2021/09/13 03:11:34;;;;;;;1.53;1.00;;;15.10;98.20;;;;;;4986085;28;20491;-78
2021/09/13 03:14:01;;;;;;;1.57;1.00;;;15.10;98.20;;;;;;5000948;28;20482;-79
2021/09/13 03:16:27;;;;;;;1.50;1.00;;;15.10;98.20;;;;;;4979247;28;20477;-79
2021/09/13 03:18:54;;;;;;;1.50;1.00;;;15.00;98.20;;;;;;4994567;28;20487;-78
2021/09/13 03:21:21;;;;;;;1.50;1.00;;;15.00;98.20;;;;;;4985806;28;20483;-79
2021/09/13 03:23:49;;;;;;;1.50;1.00;;;15.00;98.20;;;;;;5005652;28;20473;-78
2021/09/13 03:26:16;;;;;;;1.60;1.00;;;15.00;98.20;;;;;;4980966;28;20847;-79
2021/09/13 03:28:43;;;;;;;1.50;1.00;;;15.00;98.20;;;;;;5005675;28;20488;-78
2021/09/13 03:31:09;;;;;;;1.50;1.00;;;15.00;98.20;;;;;;4977702;28;20516;-79
2021/09/13 03:33:36;;;;;;;1.50;1.00;;;14.90;98.20;;;;;;4994967;28;20482;-79
2021/09/13 03:36:03;;;;;;;1.50;1.00;;;14.90;98.20;;;;;;4981651;28;20854;-79
2021/09/13 03:38:31;;;;;;;1.50;1.00;;;14.90;98.20;;;;;;5005852;28;20481;-78
2021/09/13 03:40:59;;;;;;;1.50;1.00;;;14.90;98.20;;;;;;4980250;28;20603;-78
2021/09/13 03:43:26;;;;;;;1.57;1.10;;;14.80;98.20;;;;;;5006104;28;20454;-79
2021/09/13 03:45:53;;;;;;;1.50;1.00;;;14.90;98.20;;;;;;4979466;28;20464;-78
2021/09/13 03:48:20;;;;;;;1.50;1.00;;;14.90;98.20;;;;;;4997107;28;20554;-78
2021/09/13 03:50:47;;;;;;;1.50;1.00;;;14.90;98.20;;;;;;4984763;28;20880;-78
2021/09/13 03:53:14;;;;;;;1.53;1.00;;;14.90;98.20;;;;;;5002609;28;20484;-78
2021/09/13 03:55:41;;;;;;;1.50;0.90;;;14.90;98.20;;;;;;4989202;28;20476;-79
2021/09/13 03:58:09;;;;;;;1.60;1.07;;;14.90;98.20;;;;;;4989595;28;20497;-78
2021/09/13 04:00:36;;;;;;;1.57;1.00;;;14.90;98.20;;;;;;4978827;28;20458;-79
2021/09/13 04:03:05;;;;;;;1.50;1.00;;;14.90;98.20;;;;;;4987103;28;20482;-78
2021/09/13 04:05:32;;;;;;;1.50;1.00;;;14.90;98.20;;;;;;4982090;28;20479;-77
2021/09/13 04:08:12;;;;;;;1.57;1.00;;;14.90;98.20;;;;;;4995357;28;20499;-77
2021/09/13 04:10:44;;;;;;;1.50;1.00;;;14.90;98.20;;;;;;4975530;28;20465;-77
2021/09/13 04:13:12;;;;;;;1.50;1.00;;;14.90;98.20;;;;;;4990240;28;20950;-76
2021/09/13 04:15:39;;;;;;;1.50;1.00;;;14.90;98.20;;;;;;4985651;28;20469;-77
2021/09/13 04:18:06;;;;;;;1.53;1.00;;;14.90;98.20;;;;;;4992863;28;20491;-78
2021/09/13 04:20:32;;;;;;;1.50;1.10;;;14.90;98.20;;;;;;4989811;28;20468;-77
2021/09/13 04:22:59;;;;;;;1.50;0.97;;;14.90;98.20;;;;;;4981664;28;20480;-77
2021/09/13 04:25:26;;;;;;;1.53;1.00;;;14.90;98.20;;;;;;4986713;28;20465;-78
2021/09/13 04:27:53;;;;;;;1.60;1.00;;;14.90;98.20;;;;;;4980012;28;20491;-76
2021/09/13 04:30:23;;;;;;;1.50;1.00;;;14.90;98.20;;;;;;4988786;28;20461;-77
2021/09/13 04:32:50;;;;;;;1.60;1.03;;;14.90;98.20;;;;;;4994138;28;20575;-77
2021/09/13 04:35:16;;;;;;;1.50;1.00;;;14.80;98.20;;;;;;4975464;28;20463;-77
2021/09/13 04:37:45;;;;;;;1.53;1.10;;;14.80;98.20;;;;;;4985724;28;20852;-77
2021/09/13 04:40:13;;;;;;;1.53;1.03;;;14.80;98.20;;;;;;4974595;28;20748;-77
2021/09/13 04:42:40;;;;;;;1.53;1.00;;;14.80;98.20;;;;;;4988439;28;21022;-77
2021/09/13 04:45:08;;;;;;;1.60;1.10;;;14.80;98.20;;;;;;4977539;28;20653;-77
2021/09/13 04:47:36;;;;;;;1.50;1.00;;;14.80;98.20;;;;;;4966022;28;20600;-77
2021/09/13 04:50:03;;;;;;;1.50;1.00;;;14.80;98.20;;;;;;4976721;28;20457;-77
2021/09/13 04:52:30;;;;;;;1.53;1.00;;;14.80;98.20;;;;;;4985776;28;20483;-77
2021/09/13 04:54:57;;;;;;;1.53;1.00;;;14.80;98.20;;;;;;4977878;28;20493;-77
2021/09/13 04:57:24;;;;;;;1.53;1.00;;;14.80;98.20;;;;;;4975913;28;20505;-77
2021/09/13 04:59:50;;;;;;;1.50;1.00;;;14.80;98.20;;;;;;4981871;28;20489;-77
2021/09/13 05:02:17;;;;;;;1.50;0.97;;;14.70;98.20;;;;;;4976008;28;20487;-77
2021/09/13 05:04:45;;;;;;;1.57;1.00;;;14.80;98.20;;;;;;4988235;28;20450;-77
2021/09/13 05:07:13;;;;;;;1.50;1.00;;;14.80;98.20;;;;;;4984499;28;21301;-77
2021/09/13 05:09:40;;;;;;;1.60;1.10;;;14.80;98.20;;;;;;4988831;28;20485;-77
2021/09/13 05:12:06;;;;;;;1.53;1.00;;;14.80;98.20;;;;;;4983787;28;20481;-77
2021/09/13 05:14:33;;;;;;;1.50;1.00;;;14.80;98.20;;;;;;4987805;28;20493;-77
2021/09/13 05:17:00;;;;;;;1.50;1.00;;;14.90;98.20;;;;;;4982085;28;21033;-76
2021/09/13 05:19:27;;;;;;;1.53;1.10;;;14.90;98.20;;;;;;4986093;28;20524;-77
2021/09/13 05:21:56;;;;;;;1.50;1.00;;;15.00;98.20;;;;;;4985766;28;20826;-77
2021/09/13 05:24:22;;;;;;;1.60;1.10;;;15.00;98.20;;;;;;4987125;28;20557;-77
2021/09/13 05:26:49;;;;;;;1.50;1.00;;;15.00;98.20;;;;;;4972544;28;20485;-78
2021/09/13 05:29:16;;;;;;;1.50;0.90;;;15.00;98.20;;;;;;4991071;28;20492;-78
2021/09/13 05:31:43;;;;;;;1.57;1.00;;;15.00;98.20;;;;;;4983070;28;20537;-78
2021/09/13 05:34:09;;;;;;;1.50;1.00;;;15.10;98.20;;;;;;4986966;28;20485;-78
2021/09/13 05:36:36;;;;;;;1.50;1.00;;;15.10;98.20;;;;;;4976284;28;20485;-78
2021/09/13 05:39:04;;;;;;;1.50;1.00;;;15.10;98.20;;;;;;4982699;28;20474;-78
2021/09/13 05:41:31;;;;;;;1.50;1.00;;;15.10;98.20;;;;;;4986462;28;20484;-78
2021/09/13 05:43:58;;;;;;;1.57;1.00;;;15.10;98.20;;;;;;4992598;28;20457;-77
2021/09/13 05:46:25;;;;;;;1.50;1.00;;;15.10;98.20;;;;;;4973323;28;20569;-77
2021/09/13 05:48:51;;;;;;;1.53;1.00;;;15.10;98.20;;;;;;4980387;28;20532;-78
2021/09/13 05:51:18;;;;;;;1.53;1.00;;;15.10;98.20;;;;;;4973782;28;20475;-78
2021/09/13 05:53:45;;;;;;;1.53;0.90;;;15.10;98.20;;;;;;5002418;28;20550;-78
2021/09/13 05:56:13;;;;;;;1.57;1.10;;;15.10;98.20;;;;;;4980292;28;20484;-79
2021/09/13 05:58:40;;;;;;;1.53;1.00;;;15.20;98.20;;;;;;4978340;28;20490;-77
2021/09/13 06:01:07;;;;;;;1.53;1.00;;;15.20;98.20;;;;;;4966147;28;20867;-77
2021/09/13 06:03:33;;;;;;;1.50;1.00;;;15.20;98.20;;;;;;4996393;28;20581;-78
2021/09/13 06:06:00;;;;;;;1.60;1.00;;;15.20;98.20;;;;;;4971679;28;20464;-77
2021/09/13 06:08:27;;;;;;;1.50;0.93;;;15.20;98.20;;;;;;4997776;28;20570;-78
2021/09/13 06:10:54;;;;;;;1.50;1.00;;;15.30;98.20;;;;;;4984316;28;20953;-78
2021/09/13 06:13:22;;;;;;;1.50;1.00;;;15.40;98.20;;;;;;5006883;28;20465;-78
2021/09/13 06:15:49;;;;;;;1.50;0.90;;;15.50;98.20;;;;;;4988333;28;20457;-78
2021/09/13 06:18:15;;;;;;;1.50;1.00;;;15.50;98.20;;;;;;4997291;28;20492;-78
2021/09/13 06:20:42;;;;;;;1.50;1.00;;;15.50;98.20;;;;;;5001247;28;20453;-79
2021/09/13 06:23:09;;;;;;;1.60;1.20;;;15.60;98.20;;;;;;4992003;28;20520;-78
2021/09/13 06:25:36;;;;;;;1.57;1.00;;;15.60;98.20;;;;;;4980470;28;21402;-78
2021/09/13 06:28:03;;;;;;;1.57;0.93;;;15.70;98.20;;;;;;4993594;28;20615;-78
2021/09/13 06:30:31;;;;;;;1.60;1.00;;;15.70;98.20;;;;;;4996895;28;20463;-78
2021/09/13 06:32:58;;;;;;;1.50;0.90;;;15.80;98.20;;;;;;4989550;28;20499;-78
2021/09/13 06:35:25;;;;;;;1.50;0.90;;;15.80;98.20;;;;;;4992273;28;20490;-79
2021/09/13 06:37:51;;;;;;;1.50;1.00;;;15.80;98.20;;;;;;4992083;28;20495;-78
2021/09/13 06:40:18;;;;;;;1.50;1.00;;;15.80;98.20;;;;;;4977217;28;20458;-79
2021/09/13 06:42:45;;;;;;;1.50;1.00;;;15.70;98.20;;;;;;4984238;28;20480;-79
2021/09/13 06:45:19;;;;;;;1.50;1.00;;;15.70;98.20;;;;;;4992337;28;20473;-79
2021/09/13 06:47:47;;;;;;;1.53;1.00;;;15.70;98.20;;;;;;4982495;28;20536;-79
2021/09/13 06:50:20;;;;;;;1.50;1.00;;;15.80;98.20;;;;;;4985125;28;20486;-79
2021/09/13 06:52:49;;;;;;;1.50;1.00;;;15.90;98.20;;;;;;4991447;28;20480;-79
2021/09/13 06:55:16;;;;;;;1.50;0.90;;;16.00;98.20;;;;;;4994025;28;20561;-78
2021/09/13 06:57:43;;;;;;;1.50;1.00;;;16.10;98.20;;;;;;4992828;28;21105;-79
2021/09/13 07:00:12;;;;;;;1.50;0.90;;;16.20;98.20;;;;;;4998339;28;20474;-79
2021/09/13 07:02:39;;;;;;;1.50;1.00;;;16.30;98.20;;;;;;4989869;28;20485;-79
2021/09/13 07:05:09;;;;;;;1.60;1.00;;;16.40;98.20;;;;;;4989020;28;20472;-80
2021/09/13 07:07:37;;;;;;;1.50;1.00;;;16.50;98.20;;;;;;4986534;28;20587;-79
2021/09/13 07:10:07;;;;;;;1.50;0.90;;;16.50;98.20;;;;;;4994631;28;20607;-81
2021/09/13 07:12:34;;;;;;;1.53;1.00;;;16.60;98.20;;;;;;4986903;28;20482;-78
2021/09/13 07:15:01;;;;;;;1.50;0.90;;;16.60;98.20;;;;;;4988330;28;20482;-79
2021/09/13 07:17:27;;;;;;;1.50;1.00;;;16.70;98.20;;;;;;4981003;28;20491;-79
2021/09/13 07:19:54;;;;;;;1.53;0.93;;;16.80;98.20;;;;;;4983804;28;20461;-79
2021/09/13 07:22:22;;;;;;;1.53;1.00;;;16.90;98.20;;;;;;4976126;28;21173;-79
2021/09/13 07:24:49;;;;;;;1.70;1.57;;;17.00;98.20;;;;;;4988501;28;20468;-80
2021/09/13 07:27:16;;;;;;;1.50;1.00;;;17.10;98.20;;;;;;4993004;28;20493;-80
2021/09/13 07:29:43;;;;;;;1.50;1.00;;;17.10;98.20;;;;;;4986636;28;20486;-80
2021/09/13 07:32:10;;;;;;;1.53;1.00;;;17.10;98.20;;;;;;4981280;28;20485;-80
2021/09/13 07:34:36;;;;;;;1.60;1.00;;;17.20;98.20;;;;;;4997291;28;20473;-80
2021/09/13 07:37:04;;;;;;;1.57;1.00;;;17.20;98.20;;;;;;4985155;28;20493;-81
2021/09/13 07:39:32;;;;;;;1.50;1.00;;;17.30;98.20;;;;;;4995926;28;21025;-81
2021/09/13 07:41:59;;;;;;;1.57;1.03;;;17.40;98.20;;;;;;4988350;28;20496;-80
2021/09/13 07:44:26;;;;;;;1.53;0.90;;;17.50;98.20;;;;;;4992800;28;20453;-81
2021/09/13 07:46:53;;;;;;;1.57;1.00;;;17.60;98.20;;;;;;4990837;28;20488;-81
2021/09/13 07:49:20;;;;;;;1.50;0.90;;;17.60;98.20;;;;;;4991980;28;20488;-81
2021/09/13 07:51:47;;;;;;;1.53;1.00;;;17.80;98.20;;;;;;4975641;28;20618;-80
2021/09/13 07:54:14;;;;;;;1.50;1.00;;;17.80;98.20;;;;;;4998354;28;20485;-82
2021/09/13 07:56:43;;;;;;;1.53;0.90;;;17.90;98.20;;;;;;4981244;28;20485;-81
2021/09/13 07:59:09;;;;;;;1.53;0.90;;;18.00;98.20;;;;;;4994203;28;20636;-82
2021/09/13 08:01:36;;;;;;;1.57;1.00;;;18.20;98.20;;;;;;4991173;28;21014;-80
2021/09/13 08:04:03;;;;;;;1.53;1.00;;;18.30;98.20;;;;;;4998835;28;20453;-81
2021/09/13 08:06:30;;;;;;;1.53;1.00;;;18.40;98.20;;;;;;4977253;28;20877;-80
2021/09/13 08:08:57;;;;;;;1.50;0.90;;;18.50;98.20;;;;;;4994040;28;20485;-81
2021/09/13 08:11:24;;;;;;;1.57;0.90;;;18.60;98.20;;;;;;4987733;28;20475;-81
2021/09/13 08:13:52;;;;;;;1.57;1.00;;;18.70;98.20;;;;;;4996020;28;20454;-81
2021/09/13 08:16:20;;;;;;;1.50;0.90;;;18.80;98.20;;;;;;4989341;28;21002;-81
2021/09/13 08:18:47;;;;;;;1.53;0.90;;;18.90;98.20;;;;;;5001180;28;20511;-81
2021/09/13 08:21:14;;;;;;;1.60;1.00;;;19.00;98.20;;;;;;4986405;28;20481;-81
2021/09/13 08:23:41;;;;;;;1.57;0.90;;;19.20;98.20;;;;;;4998506;28;20450;-81
2021/09/13 08:26:08;;;;;;;1.57;0.90;;;19.30;98.20;;;;;;4985934;28;20481;-81
2021/09/13 08:28:35;;;;;;;1.50;1.00;;;19.40;98.20;;;;;;5000089;28;20515;-81
2021/09/13 08:31:03;;;;;;;1.50;0.90;;;19.40;98.20;;;;;;4986557;28;20464;-81
2021/09/13 08:33:30;;;;;;;1.80;1.50;;;19.30;98.20;;;;;;5011072;28;20469;-81
2021/09/13 08:35:57;;;;;;;1.60;1.20;;;19.40;98.20;;;;;;4969825;28;20492;-82
2021/09/13 08:38:24;;;;;;;1.53;1.00;;;19.50;98.20;;;;;;5003103;28;21001;-83
2021/09/13 08:40:52;;;;;;;1.60;0.97;;;19.60;98.20;;;;;;4970584;28;20875;-83
2021/09/13 08:43:20;;;;;;;1.50;0.90;;;19.70;98.20;;;;;;4997041;28;20515;-82
2021/09/13 08:45:52;;;;;;;1.53;0.90;;;19.80;98.20;;;;;;4974514;28;20494;-82
2021/09/13 08:48:23;;;;;;;1.53;0.90;;;20.00;98.20;;;;;;4970517;28;21014;-82
2021/09/13 08:51:17;;;;;;;1.50;0.90;;;20.10;98.20;;;;;;4979657;28;20461;-81
2021/09/13 08:53:50;;;;;;;1.57;0.90;;;20.10;98.20;;;;;;4988757;28;20485;-83
2021/09/13 08:56:17;;;;;;;1.53;0.90;;;20.20;98.20;;;;;;4979697;28;21047;-82
2021/09/13 08:58:45;;;;;;;1.50;0.90;;;20.40;98.20;;;;;;4987696;28;20473;-81
2021/09/13 09:01:13;;;;;;;1.50;0.90;;;20.60;98.20;;;;;;4970571;28;21936;-82
2021/09/13 09:03:43;;;;;;;1.53;0.97;;;20.70;97.60;;;;;;4997002;28;20553;-81
2021/09/13 09:06:29;;;;;;;1.53;0.90;;;20.80;97.60;;;;;;4969072;28;20555;-81
2021/09/13 09:09:02;;;;;;;1.53;1.00;;;20.90;98.20;;;;;;4996538;28;20511;-82
2021/09/13 09:11:53;;;;;;;1.50;0.90;;;21.00;97.00;;;;;;4970531;28;20485;-82
2021/09/13 09:14:35;;;;;;;1.50;1.00;;;21.10;98.20;;;;;;4992696;28;20457;-82
2021/09/13 09:17:05;;;;;;;1.53;0.90;;;21.10;96.50;;;;;;4990736;28;20489;-82
2021/09/13 09:19:33;;;;;;;1.50;0.90;;;21.20;97.40;;;;;;4985336;28;20487;-82
2021/09/13 09:22:19;;;;;;;1.50;0.90;;;21.40;97.20;;;;;;4979637;28;20481;-82
2021/09/13 09:24:47;;;;;;;1.50;0.90;;;21.50;95.90;;;;;;4990725;28;20442;-81
2021/09/13 09:27:14;;;;;;;1.50;0.90;;;21.40;95.50;;;;;;4983519;28;20499;-83
2021/09/13 09:29:41;;;;;;;1.50;0.90;;;21.40;95.80;;;;;;4986895;28;20513;-82
2021/09/13 09:32:08;;;;;;;1.60;1.00;;;21.40;96.00;;;;;;4982903;28;20543;-83
2021/09/13 09:34:38;;;;;;;1.50;0.90;;;21.40;96.60;;;;;;4999384;28;20544;-82
2021/09/13 09:37:08;;;;;;;1.50;0.90;;;21.50;96.50;;;;;;4982431;28;20480;-82
2021/09/13 09:39:37;;;;;;;1.53;0.90;;;21.60;96.60;;;;;;4989915;28;20508;-82
2021/09/13 09:42:05;;;;;;;1.53;0.90;;;21.70;95.50;;;;;;4986222;28;20484;-82
2021/09/13 09:44:33;;;;;;;1.60;1.10;;;21.80;96.30;;;;;;4992085;28;20458;-82
2021/09/13 09:47:06;;;;;;;1.50;0.90;;;21.80;95.00;;;;;;4984124;28;20484;-81
2021/09/13 09:49:51;;;;;;;1.57;0.90;;;21.70;96.40;;;;;;4995269;28;20480;-81
2021/09/13 09:52:34;;;;;;;1.50;0.90;;;21.70;96.00;;;;;;4990896;28;20595;-82
2021/09/13 09:55:13;;;;;;;1.50;0.90;;;21.80;96.10;;;;;;4991958;28;20502;-81
2021/09/13 09:57:41;;;;;;;1.50;0.90;;;21.90;95.20;;;;;;4986427;28;20492;-83
2021/09/13 10:00:26;;;;;;;1.50;0.90;;;22.00;96.10;;;;;;4984944;28;20456;-82
2021/09/13 10:02:53;;;;;;;1.57;1.00;;;22.00;95.00;;;;;;4985656;28;20907;-84
2021/09/13 10:05:23;;;;;;;1.60;1.10;;;22.00;95.20;;;;;;4988149;28;20873;-82
2021/09/13 10:07:50;;;;;;;1.50;0.90;;;22.00;94.50;;;;;;5001847;28;20651;-83
2021/09/13 10:10:18;;;;;;;1.50;0.90;;;22.10;94.50;;;;;;4986982;28;20538;-82
2021/09/13 10:12:46;;;;;;;1.53;0.90;;;22.20;94.10;;;;;;4991030;28;20530;-82
2021/09/13 10:15:14;;;;;;;1.50;0.90;;;22.30;94.10;;;;;;4982794;28;20489;-82
2021/09/13 10:17:41;;;;;;;1.80;1.60;;;22.40;93.70;;;;;;4982664;28;20489;-83
2021/09/13 10:20:09;;;;;;;1.50;0.90;;;22.50;93.90;;;;;;4983214;28;20465;-81
2021/09/13 10:22:39;;;;;;;1.50;0.90;;;22.60;93.80;;;;;;4989705;28;20476;-81
2021/09/13 10:25:08;;;;;;;1.57;1.00;;;22.70;92.00;;;;;;4992695;28;20457;-81
2021/09/13 10:27:37;;;;;;;1.57;0.90;;;22.80;92.00;;;;;;4984598;28;20489;-81
2021/09/13 10:30:16;;;;;;;1.50;0.90;;;22.90;92.70;;;;;;4990916;28;20515;-82
2021/09/13 10:32:45;;;;;;;1.50;0.90;;;23.00;92.10;;;;;;4990521;28;20488;-81
2021/09/13 10:35:13;;;;;;;1.50;0.90;;;23.10;91.90;;;;;;4981422;28;20556;-82
2021/09/13 10:37:44;;;;;;;1.50;0.90;;;23.10;90.70;;;;;;4986572;28;20465;-81
2021/09/13 10:40:21;;;;;;;1.50;0.83;;;23.10;91.20;;;;;;4979595;28;20469;-81
2021/09/13 10:42:49;;;;;;;1.50;0.90;;;23.00;91.30;;;;;;4998190;28;21112;-81
2021/09/13 10:45:30;;;;;;;1.50;0.90;;;22.90;91.40;;;;;;4981212;28;20501;-81
2021/09/13 10:48:09;;;;;;;1.50;0.83;;;22.80;92.40;;;;;;4988656;28;21017;-81
2021/09/13 10:50:40;;;;;;;1.50;0.90;;;22.80;90.40;;;;;;4993907;28;20480;-81
2021/09/13 10:53:32;;;;;;;1.50;0.90;;;22.80;90.50;;;;;;4978024;28;20565;-82
2021/09/13 10:56:01;;;;;;;1.50;1.00;;;22.90;90.40;;;;;;4974971;28;21000;-82
2021/09/13 10:58:43;;;;;;;1.50;0.90;;;23.10;89.60;;;;;;5004913;28;20851;-82
2021/09/13 11:01:21;;;;;;;1.50;0.90;;;23.20;90.10;;;;;;4975117;28;20507;-81
2021/09/13 11:03:57;;;;;;;1.53;0.90;;;23.20;88.80;;;;;;5000210;28;20528;-81
2021/09/13 11:06:44;;;;;;;1.50;0.90;;;23.20;89.00;;;;;;4975771;28;20471;-81
2021/09/13 11:09:20;;;;;;;1.50;0.90;;;23.10;88.30;;;;;;4987264;28;20482;-81
2021/09/13 11:11:56;;;;;;;1.50;0.87;;;23.10;88.70;;;;;;4975327;28;20480;-82
2021/09/13 11:14:24;;;;;;;1.50;0.90;;;23.20;89.10;;;;;;4983484;28;20463;-82
2021/09/13 11:16:52;;;;;;;1.50;0.90;;;23.30;87.90;;;;;;4987779;28;20487;-81
2021/09/13 11:19:20;;;;;;;1.50;0.90;;;23.50;88.30;;;;;;4995229;28;20481;-82
2021/09/13 11:21:49;;;;;;;1.67;1.00;;;23.50;88.40;;;;;;4974617;28;20497;-81
2021/09/13 11:24:18;;;;;;;1.50;0.90;;;23.60;87.10;;;;;;4986844;28;20465;-82
2021/09/13 11:26:48;;;;;;;1.50;0.87;;;23.70;87.80;;;;;;4973218;28;20496;-80
2021/09/13 11:29:16;;;;;;;1.50;0.90;;;23.80;87.20;;;;;;4987701;28;20963;-82
2021/09/13 11:31:44;;;;;;;1.50;0.90;;;24.00;86.20;;;;;;4970820;28;20492;-81
2021/09/13 11:34:26;;;;;;;1.50;0.90;;;24.10;88.40;;;;;;4990500;28;20482;-81
2021/09/13 11:36:56;;;;;;;1.53;0.90;;;24.20;85.80;;;;;;4982330;28;21001;-82
2021/09/13 11:39:26;;;;;;;1.50;0.90;;;24.20;85.40;;;;;;4978724;28;20509;-82
2021/09/13 11:41:57;;;;;;;1.53;0.90;;;24.40;85.90;;;;;;4972161;28;21069;-81
2021/09/13 11:44:27;;;;;;;1.50;0.90;;;24.50;85.20;;;;;;4982517;28;20473;-82
2021/09/13 11:46:56;;;;;;;1.50;0.90;;;24.70;84.30;;;;;;4985808;28;20852;-81
2021/09/13 11:49:26;;;;;;;1.50;0.90;;;24.70;85.40;;;;;;4992766;28;20481;-82
2021/09/13 11:52:14;;;;;;;1.50;0.90;;;24.80;84.50;;;;;;4969806;28;20484;-83
2021/09/13 11:54:51;;;;;;;1.50;0.83;;;25.00;83.20;;;;;;4983205;28;20469;-82
2021/09/13 11:57:39;;;;;;;1.50;0.87;;;25.10;82.60;;;;;;4977467;28;20484;-82
2021/09/13 12:00:12;;;;;;;1.50;0.90;;;25.10;79.60;;;;;;4991401;28;20481;-81
2021/09/13 12:02:41;;;;;;;1.50;0.80;;;24.90;79.90;;;;;;4975804;28;20920;-82
2021/09/13 12:05:11;;;;;;;1.50;0.90;;;24.90;79.70;;;;;;4982289;28;20885;-81
2021/09/13 12:07:39;;;;;;;1.50;0.90;;;25.10;80.40;;;;;;4980865;28;20491;-81
2021/09/13 12:10:08;;;;;;;1.50;0.90;;;25.10;79.60;;;;;;4990152;28;20734;-83
2021/09/13 12:12:37;;;;;;;1.50;0.90;;;25.30;78.40;;;;;;4976309;28;20921;-82
2021/09/13 12:15:07;;;;;;;1.50;0.90;;;25.30;76.70;;;;;;4988568;28;20491;-83
2021/09/13 12:17:42;;;;;;;1.50;0.87;;;25.30;77.30;;;;;;4968476;28;20484;-82
2021/09/13 12:20:18;;;;;;;1.50;0.80;;;25.40;76.00;;;;;;4979679;28;20457;-81
2021/09/13 12:22:46;;;;;;;1.50;0.90;;;25.40;78.50;;;;;;4987627;28;20499;-83
2021/09/13 12:25:17;;;;;;;1.50;0.90;;;25.30;75.60;;;;;;4980582;28;20462;-81
2021/09/13 12:27:45;;;;;;;1.50;0.80;;;25.10;76.30;;;;;;4987668;28;20480;-82
2021/09/13 12:30:22;;;;;;;1.50;0.90;;;25.00;73.90;;;;;;4979408;28;20487;-81
2021/09/13 12:32:51;;;;;;;1.53;1.00;;;25.10;74.30;;;;;;4988072;28;20476;-81
2021/09/13 12:35:18;;;;;;;1.60;1.00;;;25.20;75.20;;;;;;4991331;28;20473;-81
2021/09/13 12:37:53;;;;;;;1.50;0.90;;;25.30;76.20;;;;;;4988140;28;20496;-82
2021/09/13 12:40:21;;;;;;;1.50;0.90;;;25.30;77.20;;;;;;4986615;28;20460;-81
2021/09/13 12:42:57;;;;;;;1.50;0.90;;;25.30;75.40;;;;;;4984033;28;20570;-81
2021/09/13 12:45:25;;;;;;;1.50;0.90;;;25.40;78.70;;;;;;4989002;28;20831;-84
2021/09/13 12:47:55;;;;;;;1.50;0.80;;;25.60;78.30;;;;;;4987671;28;20540;-81
2021/09/13 12:50:30;;;;;;;1.50;0.90;;;25.60;76.30;;;;;;4990515;28;20464;-81
2021/09/13 12:52:58;;;;;;;1.50;0.90;;;25.70;77.50;;;;;;4985505;28;20490;-81
2021/09/13 12:55:28;;;;;;;1.50;0.90;;;25.70;77.60;;;;;;4970712;28;20469;-81